createdAt,value
2023-08-31T00:01:10.150Z,2.53
2023-08-31T00:03:37.717Z,2.77
2023-08-31T00:06:08.705Z,3.72
2023-08-31T00:08:36.415Z,4.70
2023-08-31T00:11:03.961Z,4.85
2023-08-31T00:13:31.690Z,5.05
2023-08-31T00:16:00.354Z,4.73
2023-08-31T00:18:28.319Z,4.80
2023-08-31T00:20:55.925Z,3.88
2023-08-31T00:23:24.784Z,4.50
2023-08-31T00:25:54.726Z,4.53
2023-08-31T00:28:22.470Z,3.53
2023-08-31T00:30:50.104Z,3.85
2023-08-31T00:33:18.609Z,4.45
2023-08-31T00:35:47.396Z,3.97
2023-08-31T00:38:15.040Z,3.90
2023-08-31T00:40:46.789Z,3.67
2023-08-31T00:43:17.354Z,3.53
2023-08-31T00:45:46.093Z,3.85
2023-08-31T00:48:17.877Z,3.97
2023-08-31T00:50:45.701Z,3.58
2023-08-31T00:53:13.608Z,3.87
2023-08-31T00:55:41.957Z,3.17
2023-08-31T00:58:10.777Z,3.58
2023-08-31T01:00:46.259Z,3.30
2023-08-31T01:03:20.470Z,3.03
2023-08-31T01:05:55.995Z,3.70
2023-08-31T01:08:31.423Z,3.60
2023-08-31T01:11:09.174Z,3.75
2023-08-31T01:13:40.275Z,3.70
2023-08-31T01:16:09.755Z,3.60
2023-08-31T01:18:41.055Z,4.00
2023-08-31T01:21:17.549Z,4.75
2023-08-31T01:24:05.026Z,4.15
2023-08-31T01:26:32.798Z,4.45
2023-08-31T01:29:01.145Z,4.10
2023-08-31T01:31:28.690Z,4.43
2023-08-31T01:33:56.195Z,4.22
2023-08-31T01:36:28.225Z,4.78
2023-08-31T01:39:04.515Z,4.47
2023-08-31T01:41:36.976Z,4.80
2023-08-31T01:44:07.523Z,4.53
2023-08-31T01:46:35.642Z,4.70
2023-08-31T01:49:03.677Z,4.68
2023-08-31T01:51:31.185Z,4.88
2023-08-31T01:53:59.674Z,4.72
2023-08-31T01:56:27.248Z,4.30
2023-08-31T01:58:56.092Z,5.20
2023-08-31T02:01:23.667Z,4.70
2023-08-31T02:03:51.221Z,4.78
2023-08-31T02:06:18.713Z,4.72
2023-08-31T02:08:48.511Z,5.53
2023-08-31T02:11:15.976Z,5.20
2023-08-31T02:13:44.166Z,5.85
2023-08-31T02:16:13.034Z,5.10
2023-08-31T02:18:40.567Z,4.65
2023-08-31T02:21:08.437Z,5.10
2023-08-31T02:23:35.963Z,5.10
2023-08-31T02:26:03.586Z,5.43
2023-08-31T02:28:31.068Z,5.40
2023-08-31T02:31:04.944Z,5.38
2023-08-31T02:33:34.075Z,5.47
2023-08-31T02:36:01.690Z,5.72
2023-08-31T02:38:29.204Z,5.82
2023-08-31T02:40:56.692Z,5.35
2023-08-31T02:43:24.862Z,5.65
2023-08-31T02:45:52.522Z,5.43
2023-08-31T02:48:20.161Z,5.85
2023-08-31T02:50:49.070Z,4.40
2023-08-31T02:53:16.555Z,5.18
2023-08-31T02:55:44.372Z,4.72
2023-08-31T02:58:11.856Z,5.13
2023-08-31T03:00:43.487Z,5.18
2023-08-31T03:03:11.547Z,5.47
2023-08-31T03:05:39.343Z,4.75
2023-08-31T03:08:08.329Z,5.25
2023-08-31T03:10:36.048Z,4.63
2023-08-31T03:13:03.580Z,4.97
2023-08-31T03:15:31.090Z,4.45
2023-08-31T03:17:58.616Z,4.53
2023-08-31T03:20:26.125Z,4.57
2023-08-31T03:22:53.747Z,4.13
2023-08-31T03:25:22.579Z,4.63
2023-08-31T03:27:50.068Z,4.35
2023-08-31T03:30:17.654Z,3.58
2023-08-31T03:32:45.175Z,4.28
2023-08-31T03:35:12.716Z,4.10
2023-08-31T03:37:40.210Z,4.15
2023-08-31T03:40:08.833Z,3.67
2023-08-31T03:42:37.693Z,3.90
2023-08-31T03:45:06.160Z,3.17
2023-08-31T03:47:33.863Z,3.17
2023-08-31T03:50:01.372Z,3.35
2023-08-31T03:52:28.874Z,3.63
2023-08-31T03:54:56.401Z,2.90
2023-08-31T03:57:24.066Z,4.00
2023-08-31T03:59:52.980Z,2.73
2023-08-31T04:02:20.497Z,2.92
2023-08-31T04:04:47.992Z,3.05
2023-08-31T04:07:15.520Z,2.47
2023-08-31T04:09:43.035Z,2.72
2023-08-31T04:12:10.631Z,3.37
2023-08-31T04:14:38.135Z,2.47
2023-08-31T04:17:07.008Z,2.40
2023-08-31T04:19:34.496Z,3.00
2023-08-31T04:22:02.002Z,2.55
2023-08-31T04:24:29.652Z,3.30
2023-08-31T04:26:57.172Z,2.67
2023-08-31T04:29:24.723Z,2.47
2023-08-31T04:31:52.566Z,2.97
2023-08-31T04:34:21.425Z,3.20
2023-08-31T04:36:48.998Z,3.20
2023-08-31T04:39:16.764Z,2.08
2023-08-31T04:41:44.254Z,2.88
2023-08-31T04:44:11.963Z,2.65
2023-08-31T04:46:40.092Z,2.85
2023-08-31T04:49:07.905Z,2.90
2023-08-31T04:51:39.403Z,3.00
2023-08-31T04:54:07.541Z,3.08
2023-08-31T04:56:35.904Z,2.92
2023-08-31T04:59:04.886Z,2.70
2023-08-31T05:01:32.698Z,3.30
2023-08-31T05:04:00.920Z,3.25
2023-08-31T05:06:28.556Z,2.97
2023-08-31T05:08:57.815Z,3.15
2023-08-31T05:11:25.636Z,3.03
2023-08-31T05:13:53.111Z,2.83
2023-08-31T05:16:20.734Z,2.92
2023-08-31T05:18:48.369Z,2.75
2023-08-31T05:21:16.285Z,3.00
2023-08-31T05:23:44.023Z,2.88
2023-08-31T05:26:16.158Z,2.47
2023-08-31T05:28:44.462Z,3.38
2023-08-31T05:31:12.216Z,3.60
2023-08-31T05:33:39.846Z,2.85
2023-08-31T05:36:07.812Z,2.75
2023-08-31T05:38:35.467Z,2.80
2023-08-31T05:41:07.959Z,2.83
2023-08-31T05:43:41.208Z,2.65
2023-08-31T05:46:09.397Z,2.50
2023-08-31T05:48:37.251Z,1.85
2023-08-31T05:51:05.616Z,2.30
2023-08-31T05:53:33.218Z,2.40
2023-08-31T05:57:12.878Z,3.28
2023-08-31T05:59:40.380Z,2.75
2023-08-31T06:02:09.724Z,3.13
2023-08-31T06:04:37.274Z,2.58
2023-08-31T06:07:04.825Z,2.15
2023-08-31T06:09:32.582Z,2.00
2023-08-31T06:12:00.131Z,2.40
2023-08-31T06:14:28.973Z,2.50
2023-08-31T06:16:56.524Z,2.55
2023-08-31T06:19:24.057Z,2.47
2023-08-31T06:21:51.777Z,2.88
2023-08-31T06:24:19.312Z,2.45
2023-08-31T06:26:51.391Z,2.40
2023-08-31T06:29:18.939Z,2.20
2023-08-31T06:31:47.889Z,2.15
2023-08-31T06:34:15.560Z,2.35
2023-08-31T06:36:43.080Z,2.20
2023-08-31T06:39:10.659Z,2.47
2023-08-31T06:41:38.158Z,2.30
2023-08-31T06:44:06.490Z,1.80
2023-08-31T06:46:38.642Z,1.40
2023-08-31T06:49:07.711Z,2.10
2023-08-31T06:51:35.782Z,2.50
2023-08-31T06:54:07.129Z,1.80
2023-08-31T06:56:35.525Z,2.15
2023-08-31T06:59:04.128Z,2.15
2023-08-31T07:01:33.869Z,2.25
2023-08-31T07:04:01.948Z,2.10
2023-08-31T07:06:31.156Z,2.37
2023-08-31T07:08:58.848Z,1.85
2023-08-31T07:11:27.405Z,2.30
2023-08-31T07:13:55.262Z,1.70
2023-08-31T07:16:23.236Z,1.75
2023-08-31T07:18:51.237Z,4.07
2023-08-31T07:21:19.171Z,2.30
2023-08-31T07:23:49.459Z,3.00
2023-08-31T07:26:18.270Z,2.83
2023-08-31T07:28:46.262Z,2.38
2023-08-31T07:31:15.058Z,2.73
2023-08-31T07:33:42.790Z,1.98
2023-08-31T07:36:10.828Z,2.03
2023-08-31T07:38:38.662Z,2.03
2023-08-31T07:41:08.215Z,2.22
2023-08-31T07:43:35.967Z,2.30
2023-08-31T07:46:03.781Z,2.40
2023-08-31T07:48:31.569Z,1.90
2023-08-31T07:50:59.697Z,2.00
2023-08-31T07:53:28.710Z,1.90
2023-08-31T07:55:58.164Z,2.00
2023-08-31T07:58:28.127Z,1.80
2023-08-31T08:00:56.842Z,1.20
2023-08-31T08:03:25.797Z,1.60
2023-08-31T08:05:53.853Z,1.73
2023-08-31T08:08:21.545Z,1.50
2023-08-31T08:10:49.198Z,1.52
2023-08-31T08:13:16.859Z,1.52
2023-08-31T08:15:47.645Z,1.55
2023-08-31T08:18:15.504Z,1.45
2023-08-31T08:20:43.297Z,1.47
2023-08-31T08:23:11.575Z,1.40
2023-08-31T08:25:39.653Z,1.45
2023-08-31T08:28:07.780Z,1.67
2023-08-31T08:30:35.566Z,1.52
2023-08-31T08:33:05.218Z,1.33
2023-08-31T08:35:32.970Z,1.20
2023-08-31T08:38:00.850Z,1.40
2023-08-31T08:40:28.680Z,1.38
2023-08-31T08:42:58.228Z,1.58
2023-08-31T08:45:27.930Z,1.20
2023-08-31T08:47:57.768Z,1.63
2023-08-31T08:50:27.172Z,1.20
2023-08-31T08:52:55.138Z,0.88
2023-08-31T08:55:23.326Z,1.10
2023-08-31T08:57:51.423Z,1.17
2023-08-31T09:00:19.846Z,1.40
2023-08-31T09:02:48.202Z,1.30
2023-08-31T09:05:16.249Z,0.95
2023-08-31T09:08:08.249Z,1.20
2023-08-31T09:10:38.120Z,1.50
2023-08-31T09:13:10.467Z,1.52
2023-08-31T09:15:42.502Z,1.52
2023-08-31T09:18:10.348Z,1.40
2023-08-31T09:20:45.367Z,1.63
2023-08-31T09:23:14.813Z,1.67
2023-08-31T09:25:46.971Z,1.25
2023-08-31T09:28:15.544Z,1.60
2023-08-31T09:30:43.603Z,1.17
2023-08-31T09:33:12.528Z,1.30
2023-08-31T09:35:48.191Z,1.23
2023-08-31T09:38:17.798Z,1.50
2023-08-31T09:40:46.726Z,1.45
2023-08-31T09:43:20.707Z,1.40
2023-08-31T09:45:49.158Z,1.45
2023-08-31T09:48:17.905Z,1.10
2023-08-31T09:50:46.773Z,1.75
2023-08-31T09:53:14.883Z,1.30
2023-08-31T09:55:45.554Z,1.60
2023-08-31T09:58:16.871Z,2.00
2023-08-31T10:00:45.515Z,1.50
2023-08-31T10:03:16.131Z,1.40
2023-08-31T10:05:46.858Z,1.40
2023-08-31T10:08:14.917Z,1.05
2023-08-31T10:10:44.159Z,1.42
2023-08-31T10:13:13.549Z,1.30
2023-08-31T10:15:43.473Z,1.27
2023-08-31T10:18:11.173Z,1.33
2023-08-31T10:20:38.931Z,1.20
2023-08-31T10:23:07.720Z,1.45
2023-08-31T10:26:06.712Z,1.20
2023-08-31T10:28:42.196Z,1.55
2023-08-31T10:31:11.020Z,1.27
2023-08-31T10:33:42.608Z,1.23
2023-08-31T10:36:15.259Z,1.40
2023-08-31T10:38:44.066Z,1.40
2023-08-31T10:41:23.385Z,1.10
2023-08-31T10:43:53.032Z,1.95
2023-08-31T10:46:27.587Z,1.50
2023-08-31T10:48:56.929Z,1.27
2023-08-31T10:51:26.247Z,0.90
2023-08-31T10:53:54.084Z,1.10
2023-08-31T10:56:23.000Z,1.45
2023-08-31T10:58:59.417Z,1.40
2023-08-31T11:01:55.897Z,1.30
2023-08-31T11:04:24.306Z,1.10
2023-08-31T11:07:07.057Z,1.40
2023-08-31T11:09:35.612Z,1.30
2023-08-31T11:12:05.757Z,1.58
2023-08-31T11:14:33.395Z,1.70
2023-08-31T11:17:01.553Z,1.10
2023-08-31T11:19:30.156Z,1.50
2023-08-31T11:21:57.791Z,1.50
2023-08-31T11:24:26.017Z,1.40
2023-08-31T11:26:53.648Z,1.73
2023-08-31T11:29:22.580Z,2.00
2023-08-31T11:31:50.194Z,1.15
2023-08-31T11:34:19.543Z,1.30
2023-08-31T11:36:49.144Z,1.13
2023-08-31T11:39:17.217Z,1.27
2023-08-31T11:41:44.662Z,1.50
2023-08-31T11:44:17.052Z,1.30
2023-08-31T11:46:51.478Z,1.20
2023-08-31T11:49:22.838Z,1.63
2023-08-31T11:51:52.546Z,1.40
2023-08-31T11:54:24.145Z,1.40
2023-08-31T11:56:53.865Z,0.93
2023-08-31T11:59:28.148Z,1.35
2023-08-31T12:01:59.809Z,1.20
2023-08-31T12:04:28.168Z,1.40
2023-08-31T12:07:06.061Z,1.23
2023-08-31T12:09:34.510Z,1.10
2023-08-31T12:12:05.985Z,1.08
2023-08-31T12:14:34.218Z,1.25
2023-08-31T12:17:08.015Z,1.00
2023-08-31T12:19:38.999Z,0.93
2023-08-31T12:22:08.874Z,1.27
2023-08-31T12:24:41.566Z,1.10
2023-08-31T12:27:09.743Z,1.75
2023-08-31T12:29:38.036Z,1.20
2023-08-31T12:32:08.176Z,1.60
2023-08-31T12:34:36.374Z,1.50
2023-08-31T12:37:06.319Z,0.90
2023-08-31T12:39:34.762Z,1.13
2023-08-31T12:42:16.408Z,1.20
2023-08-31T12:44:49.426Z,1.10
2023-08-31T12:47:18.708Z,0.93
2023-08-31T12:49:46.400Z,1.05
2023-08-31T12:52:15.408Z,1.65
2023-08-31T12:54:43.386Z,1.75
2023-08-31T12:57:11.245Z,1.03
2023-08-31T12:59:39.132Z,1.25
2023-08-31T13:02:11.844Z,0.98
2023-08-31T13:04:42.042Z,0.95
2023-08-31T13:07:10.222Z,1.00
2023-08-31T13:09:38.067Z,1.03
2023-08-31T13:12:06.185Z,1.20
2023-08-31T13:14:33.943Z,0.80
2023-08-31T13:17:02.810Z,0.85
2023-08-31T13:19:30.693Z,1.17
2023-08-31T13:21:59.940Z,1.00
2023-08-31T13:24:30.668Z,0.90
2023-08-31T13:26:59.165Z,0.90
2023-08-31T13:29:27.039Z,1.10
2023-08-31T13:31:54.835Z,1.10
2023-08-31T13:34:22.665Z,1.20
2023-08-31T13:36:50.449Z,1.25
2023-08-31T13:39:19.740Z,1.30
2023-08-31T13:41:47.567Z,1.20
2023-08-31T13:44:15.304Z,0.80
2023-08-31T13:46:43.161Z,0.97
2023-08-31T13:49:13.141Z,1.02
2023-08-31T13:51:40.958Z,0.88
2023-08-31T13:54:09.147Z,1.10
2023-08-31T13:56:38.405Z,1.13
2023-08-31T13:59:12.827Z,0.90
2023-08-31T14:01:41.551Z,1.00
2023-08-31T14:04:09.296Z,0.80
2023-08-31T14:06:37.380Z,0.98
2023-08-31T14:09:07.055Z,1.10
2023-08-31T14:11:38.809Z,0.83
2023-08-31T14:14:11.929Z,0.88
2023-08-31T14:16:40.366Z,0.98
2023-08-31T14:19:08.487Z,0.73
2023-08-31T14:21:36.232Z,1.00
2023-08-31T14:24:05.230Z,1.80
2023-08-31T14:26:32.780Z,1.10
2023-08-31T14:29:01.715Z,1.30
2023-08-31T14:31:29.302Z,1.55
2023-08-31T14:33:57.396Z,1.30
2023-08-31T14:36:24.965Z,1.30
2023-08-31T14:38:52.494Z,1.25
2023-08-31T14:41:20.074Z,1.38
2023-08-31T14:43:47.628Z,1.70
2023-08-31T14:46:16.615Z,1.20
2023-08-31T14:48:44.501Z,1.17
2023-08-31T14:51:12.505Z,1.02
2023-08-31T14:53:41.109Z,1.48
2023-08-31T14:56:09.031Z,1.20
2023-08-31T14:58:36.876Z,1.20
2023-08-31T15:01:04.585Z,1.90
2023-08-31T15:03:33.651Z,1.15
2023-08-31T15:06:01.627Z,1.67
2023-08-31T15:08:39.512Z,1.10
2023-08-31T15:11:07.382Z,1.00
2023-08-31T15:13:35.005Z,1.33
2023-08-31T15:16:02.672Z,1.33
2023-08-31T15:18:30.591Z,1.23
2023-08-31T15:20:59.562Z,1.65
2023-08-31T15:23:27.216Z,1.30
2023-08-31T15:26:01.186Z,1.63
2023-08-31T15:28:28.926Z,1.40
2023-08-31T15:30:56.560Z,1.75
2023-08-31T15:33:24.194Z,1.40
2023-08-31T15:35:52.009Z,1.40
2023-08-31T15:38:21.230Z,1.20
2023-08-31T15:40:51.049Z,1.30
2023-08-31T15:43:19.966Z,1.27
2023-08-31T15:45:49.317Z,2.08
2023-08-31T15:48:16.905Z,1.45
2023-08-31T15:50:44.540Z,1.10
2023-08-31T15:53:12.167Z,1.30
2023-08-31T15:55:41.259Z,1.67
2023-08-31T15:58:09.417Z,1.67
2023-08-31T16:00:37.543Z,1.45
2023-08-31T16:03:05.628Z,1.80
2023-08-31T16:05:33.256Z,1.67
2023-08-31T16:08:01.827Z,1.20
2023-08-31T16:10:29.499Z,1.50
2023-08-31T16:12:59.782Z,1.60
2023-08-31T16:15:28.801Z,1.43
2023-08-31T16:17:56.605Z,1.50
2023-08-31T16:20:25.560Z,1.35
2023-08-31T16:22:53.119Z,1.70
2023-08-31T16:25:20.696Z,1.48
2023-08-31T16:27:48.283Z,1.27
2023-08-31T16:30:17.362Z,1.40
2023-08-31T16:32:45.255Z,1.70
2023-08-31T16:35:15.496Z,1.75
2023-08-31T16:37:43.649Z,1.50
2023-08-31T16:40:12.251Z,1.50
2023-08-31T16:42:40.656Z,1.23
2023-08-31T16:45:10.104Z,1.40
2023-08-31T16:47:39.443Z,1.60
2023-08-31T16:50:07.829Z,1.52
2023-08-31T16:52:35.482Z,1.37
2023-08-31T16:55:03.164Z,2.03
2023-08-31T16:57:31.224Z,1.80
2023-08-31T16:59:59.065Z,1.40
2023-08-31T17:02:27.737Z,1.20
2023-08-31T17:04:57.181Z,1.50
2023-08-31T17:07:24.725Z,1.85
2023-08-31T17:09:52.264Z,1.70
2023-08-31T17:12:19.852Z,2.00
2023-08-31T17:14:49.283Z,1.48
2023-08-31T17:17:17.202Z,1.40
2023-08-31T17:19:44.764Z,1.80
2023-08-31T17:22:13.646Z,1.38
2023-08-31T17:24:41.195Z,1.67
2023-08-31T17:27:08.782Z,1.55
2023-08-31T17:29:36.511Z,1.70
2023-08-31T17:32:04.749Z,2.10
2023-08-31T17:34:32.425Z,1.80
2023-08-31T17:37:00.099Z,2.28
2023-08-31T17:39:29.628Z,1.65
2023-08-31T17:41:57.553Z,1.40
2023-08-31T17:44:26.211Z,1.50
2023-08-31T17:46:54.280Z,1.58
2023-08-31T17:49:22.040Z,2.15
2023-08-31T17:51:50.449Z,1.90
2023-08-31T17:54:18.184Z,1.83
2023-08-31T17:56:47.373Z,1.90
2023-08-31T17:59:18.749Z,2.28
2023-08-31T18:01:47.291Z,1.50
2023-08-31T18:04:15.025Z,1.90
2023-08-31T18:06:42.798Z,2.07
2023-08-31T18:09:10.703Z,1.95
2023-08-31T18:11:38.563Z,1.95
2023-08-31T18:14:08.427Z,1.50
2023-08-31T18:16:36.350Z,1.52
2023-08-31T18:19:04.341Z,1.70
2023-08-31T18:21:32.388Z,1.52
2023-08-31T18:24:00.035Z,2.13
2023-08-31T18:26:27.879Z,1.42
2023-08-31T18:28:55.604Z,1.70
2023-08-31T18:31:26.110Z,1.83
2023-08-31T18:33:53.937Z,2.20
2023-08-31T18:36:21.662Z,1.70
2023-08-31T18:38:49.220Z,1.98
2023-08-31T18:41:16.820Z,2.25
2023-08-31T18:43:46.347Z,1.73
2023-08-31T18:46:13.956Z,2.70
2023-08-31T18:48:42.978Z,2.10
2023-08-31T18:51:10.533Z,2.03
2023-08-31T18:53:38.125Z,2.10
2023-08-31T18:56:06.006Z,2.17
2023-08-31T18:58:34.008Z,2.03
2023-08-31T19:01:04.228Z,2.20
2023-08-31T19:03:31.925Z,3.17
2023-08-31T19:06:00.836Z,1.58
2023-08-31T19:08:28.452Z,2.40
2023-08-31T19:10:56.007Z,2.00
2023-08-31T19:13:23.566Z,2.17
2023-08-31T19:15:51.178Z,1.67
2023-08-31T19:18:18.714Z,2.22
2023-08-31T19:20:46.284Z,2.70
2023-08-31T19:23:15.135Z,2.35
2023-08-31T19:25:42.648Z,2.42
2023-08-31T19:28:10.182Z,2.20
2023-08-31T19:30:37.860Z,2.25
2023-08-31T19:33:05.863Z,1.80
2023-08-31T19:38:03.892Z,2.10
2023-08-31T19:40:34.131Z,2.38
2023-08-31T19:43:01.635Z,2.70
2023-08-31T19:45:31.359Z,1.90
2023-08-31T19:47:58.906Z,2.25
2023-08-31T19:50:27.679Z,2.50
2023-08-31T19:52:55.198Z,2.58
2023-08-31T19:55:23.238Z,3.05
2023-08-31T19:57:52.220Z,2.00
2023-08-31T20:00:23.230Z,2.83
2023-08-31T20:02:51.166Z,1.80
2023-08-31T20:05:20.081Z,2.60
2023-08-31T20:07:49.070Z,2.22
2023-08-31T20:10:17.121Z,2.20
2023-08-31T20:12:44.705Z,2.50
2023-08-31T20:15:13.747Z,1.63
2023-08-31T20:17:43.267Z,2.42
2023-08-31T20:20:14.187Z,2.55
2023-08-31T20:22:42.138Z,2.47
2023-08-31T20:25:10.705Z,2.22
2023-08-31T20:27:41.960Z,2.47
2023-08-31T20:30:11.946Z,2.65
2023-08-31T20:32:41.482Z,2.30
2023-08-31T20:35:11.584Z,2.43
2023-08-31T20:37:39.371Z,2.47
2023-08-31T20:40:10.182Z,2.50
2023-08-31T20:42:38.949Z,2.70
2023-08-31T20:45:11.643Z,2.75
2023-08-31T20:47:45.865Z,2.50
2023-08-31T20:50:15.542Z,2.33
2023-08-31T20:52:43.383Z,2.65
2023-08-31T20:55:11.497Z,2.13
2023-08-31T20:57:41.344Z,2.38
2023-08-31T21:00:12.589Z,2.90
2023-08-31T21:02:43.623Z,2.92
2023-08-31T21:05:26.732Z,3.10
2023-08-31T21:07:55.973Z,2.58
2023-08-31T21:10:37.782Z,3.03
2023-08-31T21:13:11.463Z,2.97
2023-08-31T21:15:45.778Z,2.28
2023-08-31T21:18:23.284Z,2.80
2023-08-31T21:20:53.730Z,2.40
2023-08-31T21:23:28.634Z,2.78
2023-08-31T21:26:09.543Z,2.80
2023-08-31T21:28:43.118Z,2.58
2023-08-31T21:31:20.340Z,2.58
2023-08-31T21:33:57.935Z,2.90
2023-08-31T21:36:26.901Z,2.92
2023-08-31T21:39:01.313Z,2.90
2023-08-31T21:41:38.676Z,2.60
2023-08-31T21:44:07.296Z,2.55
2023-08-31T21:46:36.540Z,2.42
2023-08-31T21:49:07.759Z,2.50
2023-08-31T21:51:37.132Z,2.33
2023-08-31T21:54:06.855Z,2.88
2023-08-31T21:56:35.800Z,2.60
2023-08-31T21:59:07.482Z,2.80
2023-08-31T22:01:37.412Z,2.25
2023-08-31T22:04:11.933Z,3.00
2023-08-31T22:06:44.565Z,2.97
2023-08-31T22:09:12.866Z,2.70
2023-08-31T22:11:41.641Z,2.50
2023-08-31T22:14:11.438Z,2.33
2023-08-31T22:16:39.700Z,2.40
2023-08-31T22:19:09.995Z,2.10
2023-08-31T22:21:39.825Z,1.77
2023-08-31T22:24:08.682Z,2.10
2023-08-31T22:26:37.035Z,1.92
2023-08-31T22:29:05.757Z,2.10
2023-08-31T22:31:36.120Z,1.77
2023-08-31T22:34:04.590Z,2.33
2023-08-31T22:36:34.887Z,1.95
2023-08-31T22:39:03.490Z,2.13
2023-08-31T22:41:31.794Z,1.70
2023-08-31T22:44:00.035Z,2.10
2023-08-31T22:46:28.333Z,1.95
2023-08-31T22:48:56.491Z,2.03
2023-08-31T22:51:26.518Z,1.83
2023-08-31T22:53:56.017Z,1.53
2023-08-31T22:56:24.097Z,1.58
2023-08-31T22:58:52.156Z,1.48
2023-08-31T23:01:20.925Z,1.70
2023-08-31T23:03:49.363Z,1.70
2023-08-31T23:06:17.470Z,1.60
2023-08-31T23:08:45.627Z,1.10
2023-08-31T23:11:15.460Z,1.10
2023-08-31T23:13:43.596Z,1.27
2023-08-31T23:16:12.010Z,1.70
2023-08-31T23:18:40.378Z,1.10
2023-08-31T23:21:10.080Z,1.00
2023-08-31T23:23:38.631Z,1.30
2023-08-31T23:26:06.904Z,1.10
2023-08-31T23:28:39.083Z,1.15
2023-08-31T23:31:07.410Z,1.10
2023-08-31T23:33:35.735Z,1.08
2023-08-31T23:36:04.231Z,1.20
2023-08-31T23:38:32.579Z,1.20
2023-08-31T23:41:00.689Z,1.40
2023-08-31T23:43:28.894Z,1.20
2023-08-31T23:45:58.415Z,1.02
2023-08-31T23:48:26.428Z,1.50
2023-08-31T23:50:54.997Z,1.27
2023-08-31T23:53:23.483Z,1.20
2023-08-31T23:55:51.558Z,1.10
2023-08-31T23:58:21.695Z,1.00
